sensor_id;sensor_type;location;lat;lon;timestamp;temperature;humidity
48264;DHT22;34086;51.076;13.722;2022-11-24T00:00:42;1.10;99.90
48264;DHT22;34086;51.076;13.722;2022-11-24T00:01:43;1.10;99.90
48264;DHT22;34086;51.076;13.722;2022-11-24T00:02:44;1.10;99.90
48264;DHT22;34086;51.076;13.722;2022-11-24T00:03:51;1.10;99.90
48264;DHT22;34086;51.076;13.722;2022-11-24T00:04:52;1.00;99.90
48264;DHT22;34086;51.076;13.722;2022-11-24T00:05:53;1.00;99.90
48264;DHT22;34086;51.076;13.722;2022-11-24T00:06:53;1.00;99.90
48264;DHT22;34086;51.076;13.722;2022-11-24T00:07:54;1.00;99.90
48264;DHT22;34086;51.076;13.722;2022-11-24T00:08:55;1.00;99.90
48264;DHT22;34086;51.076;13.722;2022-11-24T00:09:56;1.00;99.90
48264;DHT22;34086;51.076;13.722;2022-11-24T00:11:02;1.00;99.90
48264;DHT22;34086;51.076;13.722;2022-11-24T00:12:03;1.00;99.90
48264;DHT22;34086;51.076;13.722;2022-11-24T00:13:04;1.00;99.90
48264;DHT22;34086;51.076;13.722;2022-11-24T00:14:05;1.00;99.90
48264;DHT22;34086;51.076;13.722;2022-11-24T00:15:06;1.00;99.90
48264;DHT22;34086;51.076;13.722;2022-11-24T00:16:15;0.90;99.90
48264;DHT22;34086;51.076;13.722;2022-11-24T00:17:16;0.90;99.90
48264;DHT22;34086;51.076;13.722;2022-11-24T00:18:16;0.90;99.90
48264;DHT22;34086;51.076;13.722;2022-11-24T00:19:17;0.90;99.90
48264;DHT22;34086;51.076;13.722;2022-11-24T00:20:18;0.90;99.90
48264;DHT22;34086;51.076;13.722;2022-11-24T00:21:19;0.90;99.90
48264;DHT22;34086;51.076;13.722;2022-11-24T00:22:20;0.90;99.90
48264;DHT22;34086;51.076;13.722;2022-11-24T00:23:21;0.90;99.90
48264;DHT22;34086;51.076;13.722;2022-11-24T00:24:21;0.90;99.90
48264;DHT22;34086;51.076;13.722;2022-11-24T00:25:22;0.90;99.90
48264;DHT22;34086;51.076;13.722;2022-11-24T00:26:25;0.90;99.90
48264;DHT22;34086;51.076;13.722;2022-11-24T00:27:26;0.90;99.90
48264;DHT22;34086;51.076;13.722;2022-11-24T00:28:27;0.90;99.90
48264;DHT22;34086;51.076;13.722;2022-11-24T00:29:27;0.90;99.90
48264;DHT22;34086;51.076;13.722;2022-11-24T00:30:28;0.90;99.90
48264;DHT22;34086;51.076;13.722;2022-11-24T00:31:32;0.90;99.90
48264;DHT22;34086;51.076;13.722;2022-11-24T00:32:33;0.90;99.90
48264;DHT22;34086;51.076;13.722;2022-11-24T00:33:34;0.90;99.90
48264;DHT22;34086;51.076;13.722;2022-11-24T00:34:34;0.80;99.90
48264;DHT22;34086;51.076;13.722;2022-11-24T00:35:35;0.80;99.90
48264;DHT22;34086;51.076;13.722;2022-11-24T00:36:37;0.80;99.90
48264;DHT22;34086;51.076;13.722;2022-11-24T00:37:38;0.80;99.90
48264;DHT22;34086;51.076;13.722;2022-11-24T00:38:39;0.80;99.90
48264;DHT22;34086;51.076;13.722;2022-11-24T00:39:40;0.80;99.90
48264;DHT22;34086;51.076;13.722;2022-11-24T00:40:41;0.80;99.90
48264;DHT22;34086;51.076;13.722;2022-11-24T00:41:42;0.70;99.90
48264;DHT22;34086;51.076;13.722;2022-11-24T00:42:43;0.80;99.90
48264;DHT22;34086;51.076;13.722;2022-11-24T00:43:44;0.70;99.90
48264;DHT22;34086;51.076;13.722;2022-11-24T00:44:44;0.70;99.90
48264;DHT22;34086;51.076;13.722;2022-11-24T00:45:45;0.70;99.90
48264;DHT22;34086;51.076;13.722;2022-11-24T00:46:46;0.70;99.90
48264;DHT22;34086;51.076;13.722;2022-11-24T00:47:46;0.70;99.90
48264;DHT22;34086;51.076;13.722;2022-11-24T00:48:47;0.70;99.90
48264;DHT22;34086;51.076;13.722;2022-11-24T00:49:48;0.70;99.90
48264;DHT22;34086;51.076;13.722;2022-11-24T00:51:00;0.70;99.90
48264;DHT22;34086;51.076;13.722;2022-11-24T00:52:01;0.70;99.90
48264;DHT22;34086;51.076;13.722;2022-11-24T00:53:02;0.70;99.90
48264;DHT22;34086;51.076;13.722;2022-11-24T00:54:03;0.70;99.90
48264;DHT22;34086;51.076;13.722;2022-11-24T00:55:04;0.70;99.90
48264;DHT22;34086;51.076;13.722;2022-11-24T00:56:05;0.70;99.90
48264;DHT22;34086;51.076;13.722;2022-11-24T00:57:06;0.70;99.90
48264;DHT22;34086;51.076;13.722;2022-11-24T00:58:07;0.70;99.90
48264;DHT22;34086;51.076;13.722;2022-11-24T00:59:07;0.70;99.90
48264;DHT22;34086;51.076;13.722;2022-11-24T01:00:08;0.70;99.90
48264;DHT22;34086;51.076;13.722;2022-11-24T01:01:13;0.70;99.90
48264;DHT22;34086;51.076;13.722;2022-11-24T01:02:14;0.60;99.90
48264;DHT22;34086;51.076;13.722;2022-11-24T01:03:16;0.60;99.90
48264;DHT22;34086;51.076;13.722;2022-11-24T01:04:17;0.60;99.90
48264;DHT22;34086;51.076;13.722;2022-11-24T01:05:17;0.60;99.90
48264;DHT22;34086;51.076;13.722;2022-11-24T01:06:22;0.60;99.90
48264;DHT22;34086;51.076;13.722;2022-11-24T01:07:23;0.60;99.90
48264;DHT22;34086;51.076;13.722;2022-11-24T01:08:23;0.60;99.90
48264;DHT22;34086;51.076;13.722;2022-11-24T01:09:24;0.60;99.90
48264;DHT22;34086;51.076;13.722;2022-11-24T01:10:24;0.60;99.90
48264;DHT22;34086;51.076;13.722;2022-11-24T01:11:34;0.50;99.90
48264;DHT22;34086;51.076;13.722;2022-11-24T01:12:53;0.50;99.90
48264;DHT22;34086;51.076;13.722;2022-11-24T01:13:56;0.50;99.90
48264;DHT22;34086;51.076;13.722;2022-11-24T01:14:57;0.50;99.90
48264;DHT22;34086;51.076;13.722;2022-11-24T01:15:58;0.50;99.90
48264;DHT22;34086;51.076;13.722;2022-11-24T01:16:59;0.50;99.90
48264;DHT22;34086;51.076;13.722;2022-11-24T01:17:59;0.50;99.90
48264;DHT22;34086;51.076;13.722;2022-11-24T01:19:00;0.50;99.90
48264;DHT22;34086;51.076;13.722;2022-11-24T01:20:03;0.50;99.90
48264;DHT22;34086;51.076;13.722;2022-11-24T01:21:04;0.50;99.90
48264;DHT22;34086;51.076;13.722;2022-11-24T01:22:05;0.50;99.90
48264;DHT22;34086;51.076;13.722;2022-11-24T01:23:05;0.50;99.90
48264;DHT22;34086;51.076;13.722;2022-11-24T01:24:06;0.50;99.90
48264;DHT22;34086;51.076;13.722;2022-11-24T01:25:08;0.50;99.90
48264;DHT22;34086;51.076;13.722;2022-11-24T01:26:13;0.50;99.90
48264;DHT22;34086;51.076;13.722;2022-11-24T01:27:14;0.50;99.90
48264;DHT22;34086;51.076;13.722;2022-11-24T01:28:15;0.50;99.90
48264;DHT22;34086;51.076;13.722;2022-11-24T01:29:16;0.50;99.90
48264;DHT22;34086;51.076;13.722;2022-11-24T01:30:16;0.50;99.90
48264;DHT22;34086;51.076;13.722;2022-11-24T01:31:17;0.50;99.90
48264;DHT22;34086;51.076;13.722;2022-11-24T01:32:18;0.50;99.90
48264;DHT22;34086;51.076;13.722;2022-11-24T01:33:18;0.50;99.90
48264;DHT22;34086;51.076;13.722;2022-11-24T01:34:19;0.50;99.90
48264;DHT22;34086;51.076;13.722;2022-11-24T01:35:20;0.50;99.90
48264;DHT22;34086;51.076;13.722;2022-11-24T01:36:21;0.50;99.90
48264;DHT22;34086;51.076;13.722;2022-11-24T01:37:22;0.50;99.90
48264;DHT22;34086;51.076;13.722;2022-11-24T01:38:23;0.50;99.90
48264;DHT22;34086;51.076;13.722;2022-11-24T01:39:24;0.50;99.90
48264;DHT22;34086;51.076;13.722;2022-11-24T01:40:25;0.50;99.90
48264;DHT22;34086;51.076;13.722;2022-11-24T01:41:26;0.40;99.90
48264;DHT22;34086;51.076;13.722;2022-11-24T01:42:38;0.40;99.90
48264;DHT22;34086;51.076;13.722;2022-11-24T01:43:40;0.40;99.90
48264;DHT22;34086;51.076;13.722;2022-11-24T01:44:41;0.50;99.90
48264;DHT22;34086;51.076;13.722;2022-11-24T01:45:42;0.50;99.90
48264;DHT22;34086;51.076;13.722;2022-11-24T01:46:47;0.50;99.90
48264;DHT22;34086;51.076;13.722;2022-11-24T01:47:48;0.50;99.90
48264;DHT22;34086;51.076;13.722;2022-11-24T01:50:00;0.50;99.90
48264;DHT22;34086;51.076;13.722;2022-11-24T01:51:13;0.40;99.90
48264;DHT22;34086;51.076;13.722;2022-11-24T01:52:20;0.40;99.90
48264;DHT22;34086;51.076;13.722;2022-11-24T01:53:23;0.40;99.90
48264;DHT22;34086;51.076;13.722;2022-11-24T01:54:29;0.50;99.90
48264;DHT22;34086;51.076;13.722;2022-11-24T01:55:34;0.50;99.90
48264;DHT22;34086;51.076;13.722;2022-11-24T01:56:38;0.50;99.90
48264;DHT22;34086;51.076;13.722;2022-11-24T01:57:56;0.50;99.90
48264;DHT22;34086;51.076;13.722;2022-11-24T01:58:59;0.50;99.90
48264;DHT22;34086;51.076;13.722;2022-11-24T02:00:05;0.50;99.90
48264;DHT22;34086;51.076;13.722;2022-11-24T02:01:14;0.40;99.90
48264;DHT22;34086;51.076;13.722;2022-11-24T02:02:16;0.40;99.90
48264;DHT22;34086;51.076;13.722;2022-11-24T02:03:19;0.40;99.90
48264;DHT22;34086;51.076;13.722;2022-11-24T02:04:26;0.40;99.90
48264;DHT22;34086;51.076;13.722;2022-11-24T02:05:39;0.40;99.90
48264;DHT22;34086;51.076;13.722;2022-11-24T02:06:41;0.40;99.90
48264;DHT22;34086;51.076;13.722;2022-11-24T02:07:43;0.40;99.90
48264;DHT22;34086;51.076;13.722;2022-11-24T02:09:01;0.40;99.90
48264;DHT22;34086;51.076;13.722;2022-11-24T02:10:07;0.40;99.90
48264;DHT22;34086;51.076;13.722;2022-11-24T02:11:08;0.40;99.90
48264;DHT22;34086;51.076;13.722;2022-11-24T02:12:09;0.40;99.90
48264;DHT22;34086;51.076;13.722;2022-11-24T02:13:10;0.40;99.90
48264;DHT22;34086;51.076;13.722;2022-11-24T02:14:13;0.30;99.90
48264;DHT22;34086;51.076;13.722;2022-11-24T02:15:16;0.30;99.90
48264;DHT22;34086;51.076;13.722;2022-11-24T02:16:18;0.30;99.90
48264;DHT22;34086;51.076;13.722;2022-11-24T02:17:18;0.30;99.90
48264;DHT22;34086;51.076;13.722;2022-11-24T02:18:19;0.30;99.90
48264;DHT22;34086;51.076;13.722;2022-11-24T02:20:37;0.30;99.90
48264;DHT22;34086;51.076;13.722;2022-11-24T02:21:38;0.30;99.90
48264;DHT22;34086;51.076;13.722;2022-11-24T02:23:01;0.30;99.90
48264;DHT22;34086;51.076;13.722;2022-11-24T02:24:24;0.20;99.90
48264;DHT22;34086;51.076;13.722;2022-11-24T02:26:46;0.20;99.90
48264;DHT22;34086;51.076;13.722;2022-11-24T02:27:47;0.30;99.90
48264;DHT22;34086;51.076;13.722;2022-11-24T02:28:49;0.30;99.90
48264;DHT22;34086;51.076;13.722;2022-11-24T02:29:49;0.30;99.90
48264;DHT22;34086;51.076;13.722;2022-11-24T02:30:51;0.30;99.90
48264;DHT22;34086;51.076;13.722;2022-11-24T02:31:57;0.30;99.90
48264;DHT22;34086;51.076;13.722;2022-11-24T02:32:59;0.30;99.90
48264;DHT22;34086;51.076;13.722;2022-11-24T02:34:00;0.30;99.90
48264;DHT22;34086;51.076;13.722;2022-11-24T02:35:03;0.30;99.90
48264;DHT22;34086;51.076;13.722;2022-11-24T02:36:04;0.30;99.90
48264;DHT22;34086;51.076;13.722;2022-11-24T02:37:05;0.30;99.90
48264;DHT22;34086;51.076;13.722;2022-11-24T02:38:05;0.30;99.90
48264;DHT22;34086;51.076;13.722;2022-11-24T02:39:11;0.30;99.90
48264;DHT22;34086;51.076;13.722;2022-11-24T02:40:19;0.30;99.90
48264;DHT22;34086;51.076;13.722;2022-11-24T02:41:24;0.30;99.90
48264;DHT22;34086;51.076;13.722;2022-11-24T02:42:27;0.30;99.90
48264;DHT22;34086;51.076;13.722;2022-11-24T02:43:36;0.20;99.90
48264;DHT22;34086;51.076;13.722;2022-11-24T02:44:41;0.30;99.90
48264;DHT22;34086;51.076;13.722;2022-11-24T02:45:43;0.20;99.90
48264;DHT22;34086;51.076;13.722;2022-11-24T02:46:44;0.20;99.90
48264;DHT22;34086;51.076;13.722;2022-11-24T02:47:44;0.20;99.90
48264;DHT22;34086;51.076;13.722;2022-11-24T02:48:45;0.20;99.90
48264;DHT22;34086;51.076;13.722;2022-11-24T02:49:46;0.20;99.90
48264;DHT22;34086;51.076;13.722;2022-11-24T02:50:46;0.20;99.90
48264;DHT22;34086;51.076;13.722;2022-11-24T02:51:47;0.20;99.90
48264;DHT22;34086;51.076;13.722;2022-11-24T02:52:48;0.20;99.90
48264;DHT22;34086;51.076;13.722;2022-11-24T02:53:48;0.20;99.90
48264;DHT22;34086;51.076;13.722;2022-11-24T02:54:49;0.20;99.90
48264;DHT22;34086;51.076;13.722;2022-11-24T02:55:50;0.20;99.90
48264;DHT22;34086;51.076;13.722;2022-11-24T02:56:51;0.20;99.90
48264;DHT22;34086;51.076;13.722;2022-11-24T02:57:51;0.20;99.90
48264;DHT22;34086;51.076;13.722;2022-11-24T02:58:52;0.20;99.90
48264;DHT22;34086;51.076;13.722;2022-11-24T02:59:53;0.20;99.90
48264;DHT22;34086;51.076;13.722;2022-11-24T03:00:53;0.20;99.90
48264;DHT22;34086;51.076;13.722;2022-11-24T03:01:54;0.20;99.90
48264;DHT22;34086;51.076;13.722;2022-11-24T03:02:55;0.20;99.90
48264;DHT22;34086;51.076;13.722;2022-11-24T03:03:55;0.20;99.90
48264;DHT22;34086;51.076;13.722;2022-11-24T03:04:56;0.20;99.90
48264;DHT22;34086;51.076;13.722;2022-11-24T03:05:57;0.10;99.90
48264;DHT22;34086;51.076;13.722;2022-11-24T03:06:57;0.10;99.90
48264;DHT22;34086;51.076;13.722;2022-11-24T03:07:58;0.10;99.90
48264;DHT22;34086;51.076;13.722;2022-11-24T03:08:59;0.10;99.90
48264;DHT22;34086;51.076;13.722;2022-11-24T03:09:59;0.10;99.90
48264;DHT22;34086;51.076;13.722;2022-11-24T03:11:01;0.10;99.90
48264;DHT22;34086;51.076;13.722;2022-11-24T03:12:02;0.10;99.90
48264;DHT22;34086;51.076;13.722;2022-11-24T03:13:03;0.10;99.90
48264;DHT22;34086;51.076;13.722;2022-11-24T03:14:04;0.10;99.90
48264;DHT22;34086;51.076;13.722;2022-11-24T03:15:05;0.10;99.90
48264;DHT22;34086;51.076;13.722;2022-11-24T03:16:09;0.10;99.90
48264;DHT22;34086;51.076;13.722;2022-11-24T03:17:10;0.10;99.90
48264;DHT22;34086;51.076;13.722;2022-11-24T03:18:11;0.10;99.90
48264;DHT22;34086;51.076;13.722;2022-11-24T03:19:11;0.10;99.90
48264;DHT22;34086;51.076;13.722;2022-11-24T03:20:12;0.00;99.90
48264;DHT22;34086;51.076;13.722;2022-11-24T03:21:13;0.00;99.90
48264;DHT22;34086;51.076;13.722;2022-11-24T03:22:14;0.00;99.90
48264;DHT22;34086;51.076;13.722;2022-11-24T03:23:14;0.00;99.90
48264;DHT22;34086;51.076;13.722;2022-11-24T03:24:15;0.00;99.90
48264;DHT22;34086;51.076;13.722;2022-11-24T03:25:16;0.00;99.90
48264;DHT22;34086;51.076;13.722;2022-11-24T03:26:18;0.00;99.90
48264;DHT22;34086;51.076;13.722;2022-11-24T03:27:19;0.00;99.90
48264;DHT22;34086;51.076;13.722;2022-11-24T03:28:20;0.00;99.90
48264;DHT22;34086;51.076;13.722;2022-11-24T03:29:21;0.00;99.90
48264;DHT22;34086;51.076;13.722;2022-11-24T03:30:22;0.00;99.90
48264;DHT22;34086;51.076;13.722;2022-11-24T03:31:23;0.00;99.90
48264;DHT22;34086;51.076;13.722;2022-11-24T03:32:23;0.00;99.90
48264;DHT22;34086;51.076;13.722;2022-11-24T03:33:24;0.00;99.90
48264;DHT22;34086;51.076;13.722;2022-11-24T03:34:25;0.00;99.90
48264;DHT22;34086;51.076;13.722;2022-11-24T03:35:26;-0.10;99.90
48264;DHT22;34086;51.076;13.722;2022-11-24T03:36:26;-0.10;99.90
48264;DHT22;34086;51.076;13.722;2022-11-24T03:37:27;0.00;99.90
48264;DHT22;34086;51.076;13.722;2022-11-24T03:38:28;-0.10;99.90
48264;DHT22;34086;51.076;13.722;2022-11-24T03:39:28;-0.10;99.90
48264;DHT22;34086;51.076;13.722;2022-11-24T03:40:29;-0.10;99.90
48264;DHT22;34086;51.076;13.722;2022-11-24T03:41:30;-0.10;99.90
48264;DHT22;34086;51.076;13.722;2022-11-24T03:42:31;-0.10;99.90
48264;DHT22;34086;51.076;13.722;2022-11-24T03:43:31;-0.10;99.90
48264;DHT22;34086;51.076;13.722;2022-11-24T03:44:32;-0.10;99.90
48264;DHT22;34086;51.076;13.722;2022-11-24T03:45:33;-0.10;99.90
48264;DHT22;34086;51.076;13.722;2022-11-24T03:46:33;-0.10;99.90
48264;DHT22;34086;51.076;13.722;2022-11-24T03:47:34;-0.10;99.90
48264;DHT22;34086;51.076;13.722;2022-11-24T03:48:35;-0.10;99.90
48264;DHT22;34086;51.076;13.722;2022-11-24T03:49:35;-0.10;99.90
48264;DHT22;34086;51.076;13.722;2022-11-24T03:50:36;-0.10;99.90
48264;DHT22;34086;51.076;13.722;2022-11-24T03:51:37;-0.10;99.90
48264;DHT22;34086;51.076;13.722;2022-11-24T03:52:37;-0.10;99.90
48264;DHT22;34086;51.076;13.722;2022-11-24T03:53:38;-0.10;99.90
48264;DHT22;34086;51.076;13.722;2022-11-24T03:54:39;-0.10;99.90
48264;DHT22;34086;51.076;13.722;2022-11-24T03:55:42;-0.10;99.90
48264;DHT22;34086;51.076;13.722;2022-11-24T03:56:43;-0.10;99.90
48264;DHT22;34086;51.076;13.722;2022-11-24T03:57:43;-0.10;99.90
48264;DHT22;34086;51.076;13.722;2022-11-24T03:58:44;-0.10;99.90
48264;DHT22;34086;51.076;13.722;2022-11-24T03:59:44;-0.10;99.90
48264;DHT22;34086;51.076;13.722;2022-11-24T04:00:48;-0.10;99.90
48264;DHT22;34086;51.076;13.722;2022-11-24T04:01:48;-0.10;99.90
48264;DHT22;34086;51.076;13.722;2022-11-24T04:02:49;-0.10;99.90
48264;DHT22;34086;51.076;13.722;2022-11-24T04:03:50;-0.10;99.90
48264;DHT22;34086;51.076;13.722;2022-11-24T04:04:50;-0.10;99.90
48264;DHT22;34086;51.076;13.722;2022-11-24T04:05:51;-0.10;99.90
48264;DHT22;34086;51.076;13.722;2022-11-24T04:06:52;-0.10;99.90
48264;DHT22;34086;51.076;13.722;2022-11-24T04:07:56;-0.10;99.90
48264;DHT22;34086;51.076;13.722;2022-11-24T04:08:58;0.00;99.90
48264;DHT22;34086;51.076;13.722;2022-11-24T04:09:59;0.00;99.90
48264;DHT22;34086;51.076;13.722;2022-11-24T04:11:00;-0.10;99.90
48264;DHT22;34086;51.076;13.722;2022-11-24T04:12:00;0.00;99.90
48264;DHT22;34086;51.076;13.722;2022-11-24T04:13:23;-0.10;99.90
48264;DHT22;34086;51.076;13.722;2022-11-24T04:14:24;-0.10;99.90
48264;DHT22;34086;51.076;13.722;2022-11-24T04:15:25;-0.10;99.90
48264;DHT22;34086;51.076;13.722;2022-11-24T04:16:26;-0.10;99.90
48264;DHT22;34086;51.076;13.722;2022-11-24T04:17:27;-0.10;99.90
48264;DHT22;34086;51.076;13.722;2022-11-24T04:18:27;-0.10;99.90
48264;DHT22;34086;51.076;13.722;2022-11-24T04:19:29;-0.10;99.90
48264;DHT22;34086;51.076;13.722;2022-11-24T04:20:29;-0.10;99.90
48264;DHT22;34086;51.076;13.722;2022-11-24T04:21:30;-0.10;99.90
48264;DHT22;34086;51.076;13.722;2022-11-24T04:22:31;-0.10;99.90
48264;DHT22;34086;51.076;13.722;2022-11-24T04:23:32;-0.10;99.90
48264;DHT22;34086;51.076;13.722;2022-11-24T04:24:33;-0.10;99.90
48264;DHT22;34086;51.076;13.722;2022-11-24T04:25:33;-0.10;99.90
48264;DHT22;34086;51.076;13.722;2022-11-24T04:26:35;-0.10;99.90
48264;DHT22;34086;51.076;13.722;2022-11-24T04:27:36;-0.10;99.90
48264;DHT22;34086;51.076;13.722;2022-11-24T04:28:37;-0.10;99.90
48264;DHT22;34086;51.076;13.722;2022-11-24T04:29:38;-0.10;99.90
48264;DHT22;34086;51.076;13.722;2022-11-24T04:30:39;-0.10;99.90
48264;DHT22;34086;51.076;13.722;2022-11-24T04:31:43;-0.10;99.90
48264;DHT22;34086;51.076;13.722;2022-11-24T04:32:44;-0.10;99.90
48264;DHT22;34086;51.076;13.722;2022-11-24T04:33:45;-0.10;99.90
48264;DHT22;34086;51.076;13.722;2022-11-24T04:34:46;-0.10;99.90
48264;DHT22;34086;51.076;13.722;2022-11-24T04:35:46;-0.10;99.90
48264;DHT22;34086;51.076;13.722;2022-11-24T04:36:47;-0.10;99.90
48264;DHT22;34086;51.076;13.722;2022-11-24T04:37:48;-0.10;99.90
48264;DHT22;34086;51.076;13.722;2022-11-24T04:38:51;-0.10;99.90
48264;DHT22;34086;51.076;13.722;2022-11-24T04:39:52;-0.10;99.90
48264;DHT22;34086;51.076;13.722;2022-11-24T04:40:54;0.00;99.90
48264;DHT22;34086;51.076;13.722;2022-11-24T04:41:55;0.00;99.90
48264;DHT22;34086;51.076;13.722;2022-11-24T04:42:56;0.00;99.90
48264;DHT22;34086;51.076;13.722;2022-11-24T04:43:56;0.00;99.90
48264;DHT22;34086;51.076;13.722;2022-11-24T04:44:57;0.00;99.90
48264;DHT22;34086;51.076;13.722;2022-11-24T04:46:01;0.00;99.90
48264;DHT22;34086;51.076;13.722;2022-11-24T04:47:01;0.00;99.90
48264;DHT22;34086;51.076;13.722;2022-11-24T04:48:03;0.00;99.90
48264;DHT22;34086;51.076;13.722;2022-11-24T04:49:04;0.00;99.90
48264;DHT22;34086;51.076;13.722;2022-11-24T04:50:05;0.10;99.90
48264;DHT22;34086;51.076;13.722;2022-11-24T04:51:07;0.10;99.90
48264;DHT22;34086;51.076;13.722;2022-11-24T04:52:07;0.10;99.90
48264;DHT22;34086;51.076;13.722;2022-11-24T04:53:09;0.10;99.90
48264;DHT22;34086;51.076;13.722;2022-11-24T04:54:12;0.20;99.90
48264;DHT22;34086;51.076;13.722;2022-11-24T04:55:12;0.20;99.90
48264;DHT22;34086;51.076;13.722;2022-11-24T04:56:13;0.20;99.90
48264;DHT22;34086;51.076;13.722;2022-11-24T04:57:22;0.20;99.90
48264;DHT22;34086;51.076;13.722;2022-11-24T04:58:23;0.20;99.90
48264;DHT22;34086;51.076;13.722;2022-11-24T04:59:24;0.30;99.90
48264;DHT22;34086;51.076;13.722;2022-11-24T05:00:25;0.30;99.90
48264;DHT22;34086;51.076;13.722;2022-11-24T05:01:26;0.20;99.90
48264;DHT22;34086;51.076;13.722;2022-11-24T05:02:27;0.20;99.90
48264;DHT22;34086;51.076;13.722;2022-11-24T05:03:27;0.30;99.90
48264;DHT22;34086;51.076;13.722;2022-11-24T05:04:28;0.30;99.90
48264;DHT22;34086;51.076;13.722;2022-11-24T05:05:29;0.30;99.90
48264;DHT22;34086;51.076;13.722;2022-11-24T05:06:29;0.30;99.90
48264;DHT22;34086;51.076;13.722;2022-11-24T05:07:30;0.40;99.90
48264;DHT22;34086;51.076;13.722;2022-11-24T05:08:31;0.40;99.90
48264;DHT22;34086;51.076;13.722;2022-11-24T05:09:32;0.40;99.90
48264;DHT22;34086;51.076;13.722;2022-11-24T05:10:33;0.40;99.90
48264;DHT22;34086;51.076;13.722;2022-11-24T05:11:45;0.40;99.90
48264;DHT22;34086;51.076;13.722;2022-11-24T05:12:56;0.40;99.90
48264;DHT22;34086;51.076;13.722;2022-11-24T05:13:59;0.50;99.90
48264;DHT22;34086;51.076;13.722;2022-11-24T05:15:02;0.50;99.90
48264;DHT22;34086;51.076;13.722;2022-11-24T05:16:03;0.50;99.90
48264;DHT22;34086;51.076;13.722;2022-11-24T05:17:06;0.50;99.90
48264;DHT22;34086;51.076;13.722;2022-11-24T05:18:10;0.50;99.90
48264;DHT22;34086;51.076;13.722;2022-11-24T05:19:11;0.60;99.90
48264;DHT22;34086;51.076;13.722;2022-11-24T05:20:12;0.60;99.90
48264;DHT22;34086;51.076;13.722;2022-11-24T05:21:14;0.70;99.90
48264;DHT22;34086;51.076;13.722;2022-11-24T05:22:15;0.70;99.90
48264;DHT22;34086;51.076;13.722;2022-11-24T05:23:16;0.70;99.90
48264;DHT22;34086;51.076;13.722;2022-11-24T05:24:16;0.70;99.90
48264;DHT22;34086;51.076;13.722;2022-11-24T05:25:17;0.70;99.90
48264;DHT22;34086;51.076;13.722;2022-11-24T05:26:18;0.70;99.90
48264;DHT22;34086;51.076;13.722;2022-11-24T05:27:18;0.80;99.90
48264;DHT22;34086;51.076;13.722;2022-11-24T05:28:19;0.80;99.90
48264;DHT22;34086;51.076;13.722;2022-11-24T05:29:20;0.80;99.90
48264;DHT22;34086;51.076;13.722;2022-11-24T05:30:20;0.90;99.90
48264;DHT22;34086;51.076;13.722;2022-11-24T05:31:21;0.80;99.90
48264;DHT22;34086;51.076;13.722;2022-11-24T05:32:22;0.80;99.90
48264;DHT22;34086;51.076;13.722;2022-11-24T05:33:23;0.80;99.90
48264;DHT22;34086;51.076;13.722;2022-11-24T05:34:24;0.90;99.90
48264;DHT22;34086;51.076;13.722;2022-11-24T05:35:24;0.90;99.90
48264;DHT22;34086;51.076;13.722;2022-11-24T05:36:25;0.80;99.90
48264;DHT22;34086;51.076;13.722;2022-11-24T05:37:45;0.80;99.90
48264;DHT22;34086;51.076;13.722;2022-11-24T05:38:46;0.80;99.90
48264;DHT22;34086;51.076;13.722;2022-11-24T05:39:47;0.90;99.90
48264;DHT22;34086;51.076;13.722;2022-11-24T05:40:48;0.90;99.90
48264;DHT22;34086;51.076;13.722;2022-11-24T05:41:48;0.90;99.90
48264;DHT22;34086;51.076;13.722;2022-11-24T05:42:49;0.90;99.90
48264;DHT22;34086;51.076;13.722;2022-11-24T05:43:50;0.90;99.90
48264;DHT22;34086;51.076;13.722;2022-11-24T05:44:51;0.90;99.90
48264;DHT22;34086;51.076;13.722;2022-11-24T05:45:52;0.90;99.90
48264;DHT22;34086;51.076;13.722;2022-11-24T05:46:53;0.80;99.90
48264;DHT22;34086;51.076;13.722;2022-11-24T05:47:53;0.80;99.90
48264;DHT22;34086;51.076;13.722;2022-11-24T05:48:54;0.80;99.90
48264;DHT22;34086;51.076;13.722;2022-11-24T05:49:55;0.80;99.90
48264;DHT22;34086;51.076;13.722;2022-11-24T05:50:56;0.80;99.90
48264;DHT22;34086;51.076;13.722;2022-11-24T05:51:57;0.80;99.90
48264;DHT22;34086;51.076;13.722;2022-11-24T05:53:16;0.70;99.90
48264;DHT22;34086;51.076;13.722;2022-11-24T05:54:17;0.70;99.90
48264;DHT22;34086;51.076;13.722;2022-11-24T05:55:17;0.70;99.90
48264;DHT22;34086;51.076;13.722;2022-11-24T05:56:18;0.70;99.90
48264;DHT22;34086;51.076;13.722;2022-11-24T05:57:19;0.70;99.90
48264;DHT22;34086;51.076;13.722;2022-11-24T05:58:20;0.70;99.90
48264;DHT22;34086;51.076;13.722;2022-11-24T05:59:21;0.70;99.90
48264;DHT22;34086;51.076;13.722;2022-11-24T06:00:21;0.80;99.90
48264;DHT22;34086;51.076;13.722;2022-11-24T06:01:22;0.80;99.90
48264;DHT22;34086;51.076;13.722;2022-11-24T06:02:23;0.80;99.90
48264;DHT22;34086;51.076;13.722;2022-11-24T06:03:24;0.90;99.90
48264;DHT22;34086;51.076;13.722;2022-11-24T06:04:24;0.90;99.90
48264;DHT22;34086;51.076;13.722;2022-11-24T06:05:27;0.90;99.90
48264;DHT22;34086;51.076;13.722;2022-11-24T06:06:28;0.90;99.90
48264;DHT22;34086;51.076;13.722;2022-11-24T06:07:28;0.90;99.90
48264;DHT22;34086;51.076;13.722;2022-11-24T06:08:30;0.90;99.90
48264;DHT22;34086;51.076;13.722;2022-11-24T06:09:30;0.90;99.90
48264;DHT22;34086;51.076;13.722;2022-11-24T06:10:31;0.90;99.90
48264;DHT22;34086;51.076;13.722;2022-11-24T06:11:32;0.90;99.90
48264;DHT22;34086;51.076;13.722;2022-11-24T06:12:32;0.90;99.90
48264;DHT22;34086;51.076;13.722;2022-11-24T06:13:33;0.90;99.90
48264;DHT22;34086;51.076;13.722;2022-11-24T06:14:34;0.90;99.90
48264;DHT22;34086;51.076;13.722;2022-11-24T06:15:35;0.90;99.90
48264;DHT22;34086;51.076;13.722;2022-11-24T06:16:37;1.00;99.90
48264;DHT22;34086;51.076;13.722;2022-11-24T06:17:38;1.00;99.90
48264;DHT22;34086;51.076;13.722;2022-11-24T06:18:39;1.10;99.90
48264;DHT22;34086;51.076;13.722;2022-11-24T06:19:40;1.10;99.90
48264;DHT22;34086;51.076;13.722;2022-11-24T06:20:41;1.10;99.90
48264;DHT22;34086;51.076;13.722;2022-11-24T06:21:42;1.10;99.90
48264;DHT22;34086;51.076;13.722;2022-11-24T06:22:43;1.10;99.90
48264;DHT22;34086;51.076;13.722;2022-11-24T06:23:46;1.20;99.90
48264;DHT22;34086;51.076;13.722;2022-11-24T06:24:48;1.20;99.90
48264;DHT22;34086;51.076;13.722;2022-11-24T06:25:50;1.10;99.90
48264;DHT22;34086;51.076;13.722;2022-11-24T06:26:50;1.20;99.90
48264;DHT22;34086;51.076;13.722;2022-11-24T06:27:51;1.20;99.90
48264;DHT22;34086;51.076;13.722;2022-11-24T06:28:52;1.20;99.90
48264;DHT22;34086;51.076;13.722;2022-11-24T06:29:53;1.20;99.90
48264;DHT22;34086;51.076;13.722;2022-11-24T06:30:53;1.20;99.90
48264;DHT22;34086;51.076;13.722;2022-11-24T06:31:54;1.30;99.90
48264;DHT22;34086;51.076;13.722;2022-11-24T06:32:55;1.30;99.90
48264;DHT22;34086;51.076;13.722;2022-11-24T06:33:56;1.30;99.90